Time;durP1;ratioP1;P1;durP2;ratioP2;P2;SDS_P1;SDS_P2;PMS_P1;PMS_P2;Temp;Humidity;BMP_temperature;BMP_pressure;BME280_temperature;BME280_humidity;BME280_pressure;Samples;Min_cycle;Max_cycle;Signal;HPM_P1;HPM_P2
2022/04/10 00:01:21;;;;;;;5.40;2.20;;;;;;;;;;5110585;28;20028;-67
2022/04/10 00:03:47;;;;;;;7.03;2.10;;;;;;;;;;5107789;28;20024;-67
2022/04/10 00:06:14;;;;;;;11.93;2.03;;;;;;;;;;5107315;28;20027;-67
2022/04/10 00:08:41;;;;;;;7.07;1.67;;;;;;;;;;5107490;28;20545;-67
2022/04/10 00:11:08;;;;;;;5.83;2.00;;;;;;;;;;5107885;28;20044;-67
2022/04/10 00:13:34;;;;;;;3.57;1.67;;;;;;;;;;5111904;28;20028;-67
2022/04/10 00:16:01;;;;;;;11.03;1.53;;;;;;;;;;5112377;28;20485;-67
2022/04/10 00:18:28;;;;;;;6.70;1.40;;;;;;;;;;5116637;28;20359;-67
2022/04/10 00:20:54;;;;;;;5.83;1.73;;;;;;;;;;5116626;28;20058;-67
2022/04/10 00:23:21;;;;;;;11.00;1.70;;;;;;;;;;5115934;28;20084;-67
2022/04/10 00:25:48;;;;;;;11.07;1.83;;;;;;;;;;5111204;28;20027;-67
2022/04/10 00:28:14;;;;;;;3.80;1.73;;;;;;;;;;5111398;28;20564;-65
2022/04/10 00:30:41;;;;;;;4.93;1.53;;;;;;;;;;5109046;28;20088;-68
2022/04/10 00:33:08;;;;;;;6.87;1.73;;;;;;;;;;5109362;28;20102;-68
2022/04/10 00:35:34;;;;;;;4.47;1.00;;;;;;;;;;5116528;28;20019;-66
2022/04/10 00:38:01;;;;;;;8.00;1.93;;;;;;;;;;5116629;28;20034;-70
2022/04/10 00:40:28;;;;;;;4.10;1.30;;;;;;;;;;5116294;28;20100;-67
2022/04/10 00:42:54;;;;;;;8.53;1.67;;;;;;;;;;5116663;28;20028;-67
2022/04/10 00:45:21;;;;;;;8.40;1.60;;;;;;;;;;5115960;28;20407;-68
2022/04/10 00:47:48;;;;;;;16.03;2.03;;;;;;;;;;5110445;28;20110;-69
2022/04/10 00:50:18;;;;;;;15.07;1.80;;;;;;;;;;5111628;28;20035;-69
2022/04/10 00:52:46;;;;;;;8.37;1.20;;;;;;;;;;5111115;28;20127;-68
2022/04/10 00:55:13;;;;;;;6.47;1.53;;;;;;;;;;5110964;28;20112;-66
2022/04/10 00:57:40;;;;;;;8.03;2.77;;;;;;;;;;5115763;28;20047;-69
2022/04/10 01:00:09;;;;;;;10.13;2.57;;;;;;;;;;5116443;28;20043;-70
2022/04/10 01:02:36;;;;;;;10.67;2.13;;;;;;;;;;5115545;28;20031;-67
2022/04/10 01:05:04;;;;;;;5.93;3.00;;;;;;;;;;5115752;28;20023;-66
2022/04/10 01:07:31;;;;;;;5.50;2.57;;;;;;;;;;5107611;28;20523;-65
2022/04/10 01:09:57;;;;;;;9.23;3.27;;;;;;;;;;5110475;28;20377;-66
2022/04/10 01:12:24;;;;;;;10.67;2.87;;;;;;;;;;5110697;28;20027;-66
2022/04/10 01:14:51;;;;;;;6.90;3.07;;;;;;;;;;5110886;28;20027;-66
2022/04/10 01:17:18;;;;;;;13.33;2.40;;;;;;;;;;5110640;28;20023;-66
2022/04/10 01:19:45;;;;;;;5.57;2.30;;;;;;;;;;5114976;28;20432;-66
2022/04/10 01:22:27;;;;;;;6.50;2.50;;;;;;;;;;5115211;28;20020;-66
2022/04/10 01:24:53;;;;;;;10.60;3.30;;;;;;;;;;5115421;28;20027;-66
2022/04/10 01:27:20;;;;;;;11.97;4.60;;;;;;;;;;5115536;28;20030;-66
2022/04/10 01:29:47;;;;;;;25.03;14.17;;;;;;;;;;5114142;28;20032;-66
2022/04/10 01:32:14;;;;;;;29.10;12.57;;;;;;;;;;5110513;28;20078;-66
2022/04/10 01:34:41;;;;;;;26.37;13.83;;;;;;;;;;5110350;28;20028;-65
2022/04/10 01:37:08;;;;;;;17.93;10.43;;;;;;;;;;5109081;28;20023;-67
2022/04/10 01:39:35;;;;;;;10.57;4.10;;;;;;;;;;5108517;28;20482;-67
2022/04/10 01:42:02;;;;;;;14.90;5.03;;;;;;;;;;5114477;28;20366;-67
2022/04/10 01:44:28;;;;;;;11.27;4.00;;;;;;;;;;5115432;28;20031;-67
2022/04/10 01:46:55;;;;;;;7.90;3.00;;;;;;;;;;5115401;28;20026;-67
2022/04/10 01:49:22;;;;;;;6.83;2.33;;;;;;;;;;5115470;28;20055;-67
2022/04/10 01:51:48;;;;;;;8.13;2.90;;;;;;;;;;5115179;28;20027;-67
2022/04/10 01:54:15;;;;;;;11.80;3.00;;;;;;;;;;5110753;28;20108;-67
2022/04/10 01:56:42;;;;;;;8.97;3.37;;;;;;;;;;5109971;28;20020;-67
2022/04/10 01:59:09;;;;;;;15.10;4.33;;;;;;;;;;5110154;28;20047;-67
2022/04/10 02:01:36;;;;;;;12.43;4.77;;;;;;;;;;5110183;28;20023;-67
2022/04/10 02:04:02;;;;;;;10.20;5.50;;;;;;;;;;5113490;28;20547;-67
2022/04/10 02:06:29;;;;;;;7.33;3.83;;;;;;;;;;5115109;28;20024;-67
2022/04/10 02:08:56;;;;;;;10.40;3.57;;;;;;;;;;5114936;28;20038;-67
2022/04/10 02:11:23;;;;;;;13.03;4.07;;;;;;;;;;5114549;28;20028;-67
2022/04/10 02:13:50;;;;;;;7.07;2.50;;;;;;;;;;5114879;28;20524;-67
2022/04/10 02:16:18;;;;;;;7.10;2.20;;;;;;;;;;5111273;28;20035;-67
2022/04/10 02:18:46;;;;;;;7.57;1.80;;;;;;;;;;5109751;28;20098;-67
2022/04/10 02:21:13;;;;;;;7.80;2.17;;;;;;;;;;5109606;28;20024;-67
2022/04/10 02:23:40;;;;;;;5.97;2.30;;;;;;;;;;5109687;28;20019;-67
2022/04/10 02:26:07;;;;;;;6.63;1.60;;;;;;;;;;5112191;28;20035;-67
2022/04/10 02:28:33;;;;;;;3.73;1.70;;;;;;;;;;5114169;28;20028;-67
2022/04/10 02:31:01;;;;;;;4.83;2.10;;;;;;;;;;5114122;28;20028;-67
2022/04/10 02:33:28;;;;;;;5.70;1.43;;;;;;;;;;5114505;28;20027;-67
2022/04/10 02:35:54;;;;;;;5.00;2.23;;;;;;;;;;5114584;28;20525;-64
2022/04/10 02:38:21;;;;;;;5.57;1.60;;;;;;;;;;5111236;28;20044;-64
2022/04/10 02:40:48;;;;;;;12.67;2.03;;;;;;;;;;5108922;28;20466;-63
2022/04/10 02:43:14;;;;;;;3.67;1.43;;;;;;;;;;5109194;28;20024;-65
2022/04/10 02:45:44;;;;;;;5.50;1.30;;;;;;;;;;5108815;28;20081;-64
2022/04/10 02:48:11;;;;;;;3.10;1.33;;;;;;;;;;5111282;28;20116;-65
2022/04/10 02:50:38;;;;;;;6.00;1.83;;;;;;;;;;5114144;28;20067;-64
2022/04/10 02:53:05;;;;;;;7.57;1.70;;;;;;;;;;5114108;28;20088;-65
2022/04/10 02:55:32;;;;;;;7.30;3.33;;;;;;;;;;5114078;28;20034;-64
2022/04/10 02:57:59;;;;;;;6.13;1.97;;;;;;;;;;5114041;28;20034;-64
2022/04/10 03:00:26;;;;;;;3.83;1.43;;;;;;;;;;5111633;28;20755;-64
2022/04/10 03:02:53;;;;;;;4.43;1.40;;;;;;;;;;5108494;28;20033;-65
2022/04/10 03:05:19;;;;;;;4.67;1.57;;;;;;;;;;5108751;28;20471;-65
2022/04/10 03:07:46;;;;;;;2.93;1.20;;;;;;;;;;5108805;28;20023;-66
2022/04/10 03:10:13;;;;;;;4.43;1.37;;;;;;;;;;5110291;28;20034;-65
2022/04/10 03:12:39;;;;;;;4.57;1.20;;;;;;;;;;5113556;28;20466;-67
2022/04/10 03:15:06;;;;;;;7.47;1.70;;;;;;;;;;5113636;28;20028;-64
2022/04/10 03:17:33;;;;;;;11.93;1.63;;;;;;;;;;5113237;28;20024;-65
2022/04/10 03:20:00;;;;;;;4.33;1.30;;;;;;;;;;5112854;28;20055;-64
2022/04/10 03:22:26;;;;;;;5.47;1.73;;;;;;;;;;5111638;28;20028;-65
2022/04/10 03:24:53;;;;;;;4.47;2.17;;;;;;;;;;5108426;28;20024;-66
2022/04/10 03:27:20;;;;;;;6.90;1.47;;;;;;;;;;5108398;28;20102;-67
2022/04/10 03:29:47;;;;;;;6.53;2.37;;;;;;;;;;5108358;28;20036;-65
2022/04/10 03:32:13;;;;;;;11.83;2.63;;;;;;;;;;5108928;28;20031;-65
2022/04/10 03:34:40;;;;;;;5.67;1.47;;;;;;;;;;5113244;28;20020;-66
2022/04/10 03:37:07;;;;;;;4.40;1.80;;;;;;;;;;5112495;28;20035;-67
2022/04/10 03:39:33;;;;;;;6.57;1.60;;;;;;;;;;5113069;28;20049;-66
2022/04/10 03:42:00;;;;;;;6.37;1.97;;;;;;;;;;5112841;28;20430;-65
2022/04/10 03:44:27;;;;;;;7.73;2.03;;;;;;;;;;5112105;28;20098;-64
2022/04/10 03:46:53;;;;;;;10.33;1.90;;;;;;;;;;5108103;28;20102;-65
2022/04/10 03:49:23;;;;;;;4.90;2.23;;;;;;;;;;5108026;28;20036;-65
2022/04/10 03:51:50;;;;;;;9.73;1.43;;;;;;;;;;5107424;28;20028;-63
2022/04/10 03:54:17;;;;;;;6.60;1.93;;;;;;;;;;5107971;28;20047;-65
2022/04/10 03:56:43;;;;;;;15.93;2.33;;;;;;;;;;5112913;28;20047;-64
2022/04/10 03:59:10;;;;;;;6.73;2.00;;;;;;;;;;5113058;28;20047;-63
2022/04/10 04:01:37;;;;;;;9.23;2.30;;;;;;;;;;5112621;28;20026;-65
2022/04/10 04:04:04;;;;;;;6.03;2.00;;;;;;;;;;5112868;28;20077;-64
2022/04/10 04:06:31;;;;;;;6.40;1.80;;;;;;;;;;5112395;28;20020;-65
2022/04/10 04:08:57;;;;;;;5.70;1.80;;;;;;;;;;5107684;28;20032;-64
2022/04/10 04:11:24;;;;;;;8.00;2.10;;;;;;;;;;5107795;28;20463;-66
2022/04/10 04:13:51;;;;;;;6.63;1.70;;;;;;;;;;5107650;28;20015;-65
2022/04/10 04:16:17;;;;;;;5.27;1.83;;;;;;;;;;5107291;28;20031;-65
2022/04/10 04:18:45;;;;;;;27.10;4.50;;;;;;;;;;5112443;28;20506;-66
2022/04/10 04:21:11;;;;;;;17.27;2.90;;;;;;;;;;5112853;28;20035;-65
2022/04/10 04:23:38;;;;;;;24.80;3.13;;;;;;;;;;5112831;28;20094;-62
2022/04/10 04:26:05;;;;;;;24.20;2.57;;;;;;;;;;5112720;28;20027;-66
2022/04/10 04:28:35;;;;;;;6.33;1.87;;;;;;;;;;5112445;28;20081;-68
2022/04/10 04:31:02;;;;;;;10.57;1.90;;;;;;;;;;5107030;28;20133;-68
2022/04/10 04:33:28;;;;;;;6.57;1.60;;;;;;;;;;5107695;28;20023;-68
2022/04/10 04:35:55;;;;;;;4.43;1.80;;;;;;;;;;5107630;28;20513;-67
2022/04/10 04:38:22;;;;;;;5.97;1.97;;;;;;;;;;5107694;28;20470;-67
2022/04/10 04:40:48;;;;;;;10.70;1.93;;;;;;;;;;5111567;28;20395;-64
2022/04/10 04:43:15;;;;;;;9.43;1.87;;;;;;;;;;5112457;28;20046;-66
2022/04/10 04:45:42;;;;;;;8.83;2.30;;;;;;;;;;5112585;28;20027;-65
2022/04/10 04:48:08;;;;;;;12.50;1.73;;;;;;;;;;5111893;28;20024;-64
2022/04/10 04:50:35;;;;;;;22.17;4.20;;;;;;;;;;5112356;28;20051;-64
2022/04/10 04:53:02;;;;;;;14.13;1.97;;;;;;;;;;5107595;28;20508;-65
2022/04/10 04:55:28;;;;;;;11.50;2.27;;;;;;;;;;5107278;28;20417;-65
2022/04/10 04:57:55;;;;;;;8.10;2.30;;;;;;;;;;5106612;28;20027;-66
2022/04/10 05:00:22;;;;;;;6.23;1.90;;;;;;;;;;5104508;28;20020;-66
2022/04/10 05:02:48;;;;;;;16.80;2.83;;;;;;;;;;5101751;28;20028;-66
2022/04/10 05:05:15;;;;;;;8.57;2.70;;;;;;;;;;5095626;28;20031;-66
2022/04/10 05:07:42;;;;;;;8.00;2.47;;;;;;;;;;5109088;28;20016;-66
2022/04/10 05:10:09;;;;;;;9.00;3.20;;;;;;;;;;5111455;28;20080;-66
2022/04/10 05:12:36;;;;;;;11.10;3.27;;;;;;;;;;5116036;28;20475;-65
2022/04/10 05:15:07;;;;;;;12.73;2.90;;;;;;;;;;5112179;28;20822;-66
2022/04/10 05:17:34;;;;;;;29.17;3.73;;;;;;;;;;5110126;28;20062;-66
2022/04/10 05:20:01;;;;;;;33.57;3.73;;;;;;;;;;5110651;28;20024;-66
2022/04/10 05:22:28;;;;;;;6.37;2.80;;;;;;;;;;5109998;28;20028;-66
2022/04/10 05:24:55;;;;;;;9.20;2.60;;;;;;;;;;5113255;28;20085;-67
2022/04/10 05:27:21;;;;;;;14.53;2.73;;;;;;;;;;5115578;28;20470;-66
2022/04/10 05:29:48;;;;;;;8.43;2.80;;;;;;;;;;5115515;28;20028;-66
2022/04/10 05:32:16;;;;;;;10.10;2.63;;;;;;;;;;5115448;28;20199;-66
2022/04/10 05:34:43;;;;;;;9.50;2.80;;;;;;;;;;5115903;28;20369;-66
2022/04/10 05:37:10;;;;;;;10.03;2.37;;;;;;;;;;5112504;28;20034;-67
2022/04/10 05:39:39;;;;;;;9.30;2.13;;;;;;;;;;5109639;28;20250;-66
2022/04/10 05:42:08;;;;;;;16.60;3.50;;;;;;;;;;5110281;28;20078;-66
2022/04/10 05:44:34;;;;;;;9.23;2.47;;;;;;;;;;5110174;28;20035;-67
2022/04/10 05:47:01;;;;;;;15.37;3.20;;;;;;;;;;5112864;28;20390;-66
2022/04/10 05:49:28;;;;;;;8.40;3.10;;;;;;;;;;5114971;28;20546;-66
2022/04/10 05:51:55;;;;;;;7.90;2.67;;;;;;;;;;5115364;28;20508;-66
2022/04/10 05:54:22;;;;;;;10.03;2.83;;;;;;;;;;5115307;28;20147;-66
2022/04/10 05:56:49;;;;;;;4.60;2.20;;;;;;;;;;5114994;28;20034;-66
2022/04/10 05:59:15;;;;;;;5.37;2.40;;;;;;;;;;5112160;28;20027;-66
2022/04/10 06:01:42;;;;;;;7.80;2.70;;;;;;;;;;5109908;28;20128;-66
2022/04/10 06:04:09;;;;;;;10.80;2.67;;;;;;;;;;5109716;28;20020;-66
2022/04/10 06:06:35;;;;;;;18.77;3.33;;;;;;;;;;5109560;28;20111;-66
2022/04/10 06:09:02;;;;;;;7.40;2.50;;;;;;;;;;5111424;28;20024;-66
2022/04/10 06:11:29;;;;;;;6.43;2.23;;;;;;;;;;5114838;28;20043;-66
2022/04/10 06:13:55;;;;;;;10.87;2.27;;;;;;;;;;5114325;28;20024;-66
2022/04/10 06:16:22;;;;;;;4.30;2.33;;;;;;;;;;5114417;28;20098;-66
2022/04/10 06:18:49;;;;;;;7.53;2.57;;;;;;;;;;5114694;28;20039;-66
2022/04/10 06:21:15;;;;;;;5.37;2.00;;;;;;;;;;5112337;28;20403;-65
2022/04/10 06:23:42;;;;;;;24.07;2.87;;;;;;;;;;5109029;28;20023;-68
2022/04/10 06:26:09;;;;;;;9.53;2.80;;;;;;;;;;5109313;28;20024;-68
2022/04/10 06:28:35;;;;;;;7.73;2.70;;;;;;;;;;5109221;28;20024;-67
2022/04/10 06:31:02;;;;;;;4.37;2.10;;;;;;;;;;5110464;28;20374;-68
2022/04/10 06:33:29;;;;;;;7.00;1.97;;;;;;;;;;5114328;28;20617;-68
2022/04/10 06:35:55;;;;;;;9.30;2.30;;;;;;;;;;5114122;28;20050;-68
2022/04/10 06:38:22;;;;;;;6.27;2.00;;;;;;;;;;5114022;28;20034;-67
2022/04/10 06:40:51;;;;;;;7.47;1.93;;;;;;;;;;5113934;28;20112;-68
2022/04/10 06:43:19;;;;;;;6.53;2.70;;;;;;;;;;5112332;28;20078;-68
2022/04/10 06:45:46;;;;;;;8.73;2.97;;;;;;;;;;5108799;28;20038;-68
2022/04/10 06:48:12;;;;;;;11.60;3.03;;;;;;;;;;5108722;28;20047;-68
2022/04/10 06:50:39;;;;;;;6.50;2.30;;;;;;;;;;5108762;28;20032;-68
2022/04/10 06:53:06;;;;;;;9.60;2.90;;;;;;;;;;5109872;28;20020;-67
2022/04/10 06:55:33;;;;;;;7.80;2.03;;;;;;;;;;5113639;28;20092;-68
2022/04/10 06:57:59;;;;;;;9.37;2.10;;;;;;;;;;5113915;28;20030;-65
2022/04/10 07:00:27;;;;;;;5.17;2.00;;;;;;;;;;5113971;28;20024;-65
2022/04/10 07:02:54;;;;;;;6.97;1.80;;;;;;;;;;5113895;28;20110;-65
2022/04/10 07:05:20;;;;;;;5.57;2.50;;;;;;;;;;5112492;28;20027;-65
2022/04/10 07:07:47;;;;;;;7.07;2.17;;;;;;;;;;5108487;28;20020;-65
2022/04/10 07:10:14;;;;;;;8.37;2.13;;;;;;;;;;5108319;28;20019;-65
2022/04/10 07:12:41;;;;;;;4.37;2.30;;;;;;;;;;5089872;28;20526;-65
2022/04/10 07:15:07;;;;;;;8.70;2.17;;;;;;;;;;5108263;28;20426;-65
2022/04/10 07:17:34;;;;;;;7.33;2.40;;;;;;;;;;5113662;28;20072;-65
2022/04/10 07:20:01;;;;;;;5.10;2.50;;;;;;;;;;5113488;28;20030;-65
2022/04/10 07:25:13;;;;;;;5.40;2.40;;;;;;;;;;5113013;28;20101;-65
2022/04/10 07:27:40;;;;;;;21.30;4.17;;;;;;;;;;5111263;28;20106;-65
2022/04/10 07:30:07;;;;;;;28.77;3.67;;;;;;;;;;5108037;28;20385;-64
2022/04/10 07:32:33;;;;;;;8.20;2.80;;;;;;;;;;5108215;28;20043;-65
2022/04/10 07:35:06;;;;;;;12.97;3.20;;;;;;;;;;5107685;28;20024;-65
2022/04/10 07:37:33;;;;;;;7.67;2.37;;;;;;;;;;5108545;28;20023;-65
2022/04/10 07:40:02;;;;;;;4.03;1.90;;;;;;;;;;5112788;28;20019;-65
2022/04/10 07:42:29;;;;;;;8.30;1.90;;;;;;;;;;5113136;28;20084;-65
2022/04/10 07:44:59;;;;;;;9.83;2.40;;;;;;;;;;5112743;28;20031;-66
2022/04/10 07:47:25;;;;;;;12.90;2.70;;;;;;;;;;5113422;28;20031;-64
2022/04/10 07:49:53;;;;;;;6.43;2.10;;;;;;;;;;5111773;28;20382;-66
2022/04/10 07:52:20;;;;;;;5.57;1.97;;;;;;;;;;5107841;28;20015;-65
2022/04/10 07:54:48;;;;;;;7.90;3.17;;;;;;;;;;5107070;28;20036;-65
2022/04/10 07:57:16;;;;;;;8.57;2.00;;;;;;;;;;5107519;28;20026;-65
2022/04/10 07:59:43;;;;;;;6.60;1.97;;;;;;;;;;5108044;28;20114;-65
2022/04/10 08:02:10;;;;;;;7.67;2.30;;;;;;;;;;5112851;28;20024;-65
2022/04/10 08:04:36;;;;;;;14.00;2.63;;;;;;;;;;5112898;28;20374;-65
2022/04/10 08:07:03;;;;;;;5.97;2.20;;;;;;;;;;5112874;28;20090;-64
2022/04/10 08:09:31;;;;;;;6.17;2.10;;;;;;;;;;5112652;28;20028;-64
2022/04/10 08:11:59;;;;;;;6.20;2.97;;;;;;;;;;5112285;28;20027;-65
2022/04/10 08:14:25;;;;;;;5.93;1.93;;;;;;;;;;5107336;28;20031;-66
2022/04/10 08:16:52;;;;;;;5.20;2.10;;;;;;;;;;5107228;28;20085;-67
2022/04/10 08:19:19;;;;;;;6.77;2.43;;;;;;;;;;5107550;28;20023;-67
2022/04/10 08:21:45;;;;;;;9.33;2.43;;;;;;;;;;5107452;28;20467;-68
2022/04/10 08:24:12;;;;;;;6.97;2.60;;;;;;;;;;5112595;28;20098;-67
2022/04/10 08:26:39;;;;;;;8.27;2.57;;;;;;;;;;5112303;28;20023;-67
2022/04/10 08:29:06;;;;;;;9.03;2.40;;;;;;;;;;5112222;28;20040;-67
2022/04/10 08:31:33;;;;;;;5.27;2.10;;;;;;;;;;5112388;28;20424;-67
2022/04/10 08:34:00;;;;;;;4.57;1.80;;;;;;;;;;5112575;28;20028;-67
2022/04/10 08:36:27;;;;;;;8.57;2.10;;;;;;;;;;5107295;28;20382;-67
2022/04/10 08:38:53;;;;;;;20.40;5.00;;;;;;;;;;5110291;28;20020;-67
2022/04/10 08:41:21;;;;;;;24.47;3.60;;;;;;;;;;5111517;28;20020;-67
2022/04/10 08:43:49;;;;;;;12.40;2.50;;;;;;;;;;5110908;28;20047;-67
2022/04/10 08:46:16;;;;;;;6.43;2.23;;;;;;;;;;5115469;28;20027;-66
2022/04/10 08:48:43;;;;;;;7.67;2.83;;;;;;;;;;5116350;28;20086;-67
2022/04/10 08:51:10;;;;;;;9.33;2.63;;;;;;;;;;5116410;28;20032;-67
2022/04/10 08:53:37;;;;;;;4.80;1.67;;;;;;;;;;5116169;28;20167;-67
2022/04/10 08:56:04;;;;;;;4.20;1.87;;;;;;;;;;5116107;28;20031;-67
2022/04/10 08:58:31;;;;;;;4.67;1.80;;;;;;;;;;5110689;28;20024;-67
2022/04/10 09:00:58;;;;;;;16.70;2.77;;;;;;;;;;5111108;28;20107;-67
2022/04/10 09:03:25;;;;;;;14.43;2.77;;;;;;;;;;5110994;28;20264;-67
2022/04/10 09:06:05;;;;;;;5.03;2.03;;;;;;;;;;5110801;28;20031;-67
2022/04/10 09:08:32;;;;;;;6.37;2.23;;;;;;;;;;5115232;28;20031;-67
2022/04/10 09:11:03;;;;;;;2.73;1.50;;;;;;;;;;5115687;28;20298;-66
2022/04/10 09:13:30;;;;;;;5.90;2.27;;;;;;;;;;5115957;28;20709;-67
2022/04/10 09:16:11;;;;;;;6.77;2.27;;;;;;;;;;5115959;28;20112;-66
2022/04/10 09:18:57;;;;;;;9.80;2.17;;;;;;;;;;5115828;28;20024;-64
2022/04/10 09:21:34;;;;;;;8.40;2.17;;;;;;;;;;5110476;28;20252;-64
2022/04/10 09:24:10;;;;;;;4.87;1.90;;;;;;;;;;5110638;28;20271;-64
2022/04/10 09:26:46;;;;;;;7.17;1.80;;;;;;;;;;5110781;28;20267;-65
2022/04/10 09:29:13;;;;;;;6.90;2.40;;;;;;;;;;5111425;28;20286;-64
2022/04/10 09:31:40;;;;;;;9.60;2.40;;;;;;;;;;5115688;28;20023;-65
2022/04/10 09:34:11;;;;;;;4.97;1.70;;;;;;;;;;5115224;28;20878;-64
2022/04/10 09:36:39;;;;;;;10.93;1.90;;;;;;;;;;5115550;28;20588;-64
2022/04/10 09:39:07;;;;;;;6.10;1.73;;;;;;;;;;5114969;28;20252;-65
2022/04/10 09:41:34;;;;;;;8.17;1.93;;;;;;;;;;5113935;28;20260;-65
2022/04/10 09:44:08;;;;;;;4.70;1.97;;;;;;;;;;5110014;28;20690;-65
2022/04/10 09:46:35;;;;;;;5.47;2.10;;;;;;;;;;5110191;28;20255;-64
2022/04/10 09:49:05;;;;;;;6.87;1.80;;;;;;;;;;5109320;28;20626;-64
2022/04/10 09:51:32;;;;;;;5.30;2.00;;;;;;;;;;5111103;28;20288;-64
2022/04/10 09:54:03;;;;;;;9.97;2.07;;;;;;;;;;5115151;28;20256;-63
2022/04/10 09:56:30;;;;;;;4.40;2.07;;;;;;;;;;5115058;28;20777;-64
2022/04/10 09:58:58;;;;;;;7.40;2.37;;;;;;;;;;5114616;28;20339;-64
2022/04/10 10:01:26;;;;;;;5.67;2.20;;;;;;;;;;5115136;28;20256;-64
2022/04/10 10:03:55;;;;;;;8.63;2.20;;;;;;;;;;5113198;28;20332;-64
2022/04/10 10:06:23;;;;;;;4.03;2.00;;;;;;;;;;5109626;28;20275;-64
2022/04/10 10:08:50;;;;;;;4.97;1.73;;;;;;;;;;5109268;28;20329;-64
2022/04/10 10:11:19;;;;;;;4.57;1.83;;;;;;;;;;5109643;28;20285;-64
2022/04/10 10:13:47;;;;;;;4.33;1.87;;;;;;;;;;5110551;28;20333;-64
2022/04/10 10:16:14;;;;;;;7.10;2.13;;;;;;;;;;5114837;28;20248;-64
2022/04/10 10:18:40;;;;;;;5.57;2.20;;;;;;;;;;5114678;28;20753;-64
2022/04/10 10:21:10;;;;;;;7.50;2.03;;;;;;;;;;5114707;28;20834;-64
2022/04/10 10:23:36;;;;;;;5.27;2.30;;;;;;;;;;5114541;28;20248;-64
2022/04/10 10:26:06;;;;;;;5.27;1.80;;;;;;;;;;5113002;28;20263;-64
2022/04/10 10:28:33;;;;;;;11.93;2.67;;;;;;;;;;5109180;28;20320;-64
2022/04/10 10:31:38;;;;;;;4.53;2.00;;;;;;;;;;5109041;28;20290;-64
2022/04/10 10:34:09;;;;;;;4.30;2.00;;;;;;;;;;5025987;28;20259;-64
2022/04/10 10:36:35;;;;;;;6.77;2.57;;;;;;;;;;5028719;28;20316;-64
2022/04/10 10:39:04;;;;;;;5.73;1.97;;;;;;;;;;5062789;28;20275;-65
2022/04/10 10:41:34;;;;;;;4.17;1.53;;;;;;;;;;5114290;28;20359;-64
2022/04/10 10:44:19;;;;;;;6.37;1.90;;;;;;;;;;5114211;28;20248;-64
2022/04/10 10:47:02;;;;;;;5.50;1.73;;;;;;;;;;5114292;28;20256;-64
2022/04/10 10:49:29;;;;;;;4.70;1.90;;;;;;;;;;5110062;28;20031;-64
2022/04/10 10:51:57;;;;;;;4.10;2.00;;;;;;;;;;5109002;28;20320;-64
2022/04/10 10:54:26;;;;;;;4.23;2.23;;;;;;;;;;5108826;28;20252;-64
2022/04/10 10:56:54;;;;;;;5.90;2.17;;;;;;;;;;5108510;28;20347;-64
2022/04/10 10:59:23;;;;;;;9.23;2.23;;;;;;;;;;5111982;28;20264;-64
2022/04/10 11:02:04;;;;;;;6.10;2.40;;;;;;;;;;5113488;28;20279;-64
2022/04/10 11:04:36;;;;;;;6.37;2.03;;;;;;;;;;5113813;28;20288;-63
2022/04/10 11:07:13;;;;;;;5.03;2.33;;;;;;;;;;5113812;28;20299;-63
2022/04/10 11:09:49;;;;;;;7.03;3.00;;;;;;;;;;5113692;28;20284;-64
2022/04/10 11:12:16;;;;;;;4.70;1.90;;;;;;;;;;5108601;28;20256;-64
2022/04/10 11:14:45;;;;;;;4.50;1.97;;;;;;;;;;5108628;28;20264;-63
2022/04/10 11:17:22;;;;;;;5.03;2.20;;;;;;;;;;5108362;28;20754;-64
2022/04/10 11:19:55;;;;;;;5.77;2.37;;;;;;;;;;5108329;28;20260;-63
2022/04/10 11:22:26;;;;;;;5.27;2.30;;;;;;;;;;5113345;28;20248;-63
2022/04/10 11:24:54;;;;;;;5.60;2.00;;;;;;;;;;5113388;28;20264;-64
2022/04/10 11:27:39;;;;;;;4.73;2.20;;;;;;;;;;5113293;28;20248;-64
2022/04/10 11:30:06;;;;;;;5.60;2.03;;;;;;;;;;5112879;28;20280;-64
2022/04/10 11:32:43;;;;;;;4.23;2.27;;;;;;;;;;5112404;28;20043;-64
2022/04/10 11:35:18;;;;;;;6.23;2.17;;;;;;;;;;5108086;28;20252;-64
2022/04/10 11:37:48;;;;;;;9.25;4.10;;;;;;;;;;5107879;28;20321;-63
2022/04/10 11:40:25;;;;;;;7.90;2.90;;;;;;;;;;5107793;28;20039;-64
2022/04/10 11:42:54;;;;;;;5.30;2.20;;;;;;;;;;5109196;28;20260;-63
2022/04/10 11:45:21;;;;;;;7.03;2.40;;;;;;;;;;5112831;28;20264;-63
2022/04/10 11:47:49;;;;;;;5.50;3.00;;;;;;;;;;5112991;28;20252;-64
2022/04/10 11:50:16;;;;;;;6.60;3.27;;;;;;;;;;5112862;28;20341;-64
2022/04/10 11:52:56;;;;;;;9.57;3.60;;;;;;;;;;5112819;28;20335;-63
2022/04/10 11:55:29;;;;;;;6.60;3.10;;;;;;;;;;5110676;28;20252;-63
2022/04/10 11:57:56;;;;;;;5.13;2.80;;;;;;;;;;5107748;28;20339;-63
2022/04/10 12:00:22;;;;;;;7.37;2.83;;;;;;;;;;5107618;28;20611;-63
2022/04/10 12:02:53;;;;;;;4.37;2.60;;;;;;;;;;5107377;28;20611;-64
2022/04/10 12:05:21;;;;;;;8.57;2.87;;;;;;;;;;5108906;28;20261;-64
2022/04/10 12:07:47;;;;;;;8.57;3.03;;;;;;;;;;5112798;28;20731;-63
2022/04/10 12:10:20;;;;;;;9.57;3.97;;;;;;;;;;5112704;28;20287;-63
2022/04/10 12:12:48;;;;;;;7.63;4.17;;;;;;;;;;5112176;28;20726;-63
2022/04/10 12:15:19;;;;;;;7.80;3.43;;;;;;;;;;5112719;28;20248;-64
2022/04/10 12:17:46;;;;;;;6.67;3.57;;;;;;;;;;5110285;28;20252;-63
2022/04/10 12:20:13;;;;;;;7.43;3.20;;;;;;;;;;5107429;28;20270;-64
2022/04/10 12:22:40;;;;;;;6.50;3.47;;;;;;;;;;5107434;28;20256;-64
2022/04/10 12:25:07;;;;;;;9.90;5.10;;;;;;;;;;5107432;28;20256;-63
2022/04/10 12:27:34;;;;;;;19.67;7.30;;;;;;;;;;5109185;28;20259;-64
2022/04/10 12:30:05;;;;;;;18.50;7.07;;;;;;;;;;5112387;28;20287;-63
2022/04/10 12:32:32;;;;;;;14.23;4.57;;;;;;;;;;5092141;28;20348;-63
2022/04/10 12:35:07;;;;;;;10.10;4.77;;;;;;;;;;5092202;28;20351;-63
2022/04/10 12:37:33;;;;;;;12.60;5.50;;;;;;;;;;5092231;28;20766;-63
2022/04/10 12:40:04;;;;;;;17.20;6.50;;;;;;;;;;5089725;28;20024;-63
2022/04/10 12:42:41;;;;;;;12.00;5.03;;;;;;;;;;5086934;28;20257;-64
2022/04/10 12:45:09;;;;;;;19.47;5.27;;;;;;;;;;5086712;28;20278;-64
2022/04/10 12:47:46;;;;;;;13.40;4.30;;;;;;;;;;5087536;28;20306;-63
2022/04/10 12:50:17;;;;;;;9.87;4.43;;;;;;;;;;5109517;28;20280;-63
2022/04/10 12:52:44;;;;;;;13.77;4.37;;;;;;;;;;5112279;28;20734;-63
2022/04/10 12:55:25;;;;;;;7.30;3.53;;;;;;;;;;5111943;28;20301;-63
2022/04/10 12:57:59;;;;;;;10.33;4.17;;;;;;;;;;5112379;28;20259;-63
2022/04/10 13:00:29;;;;;;;9.60;3.80;;;;;;;;;;5112320;28;20252;-63
2022/04/10 13:02:56;;;;;;;10.40;4.63;;;;;;;;;;5108073;28;20291;-63
2022/04/10 13:05:24;;;;;;;9.87;3.97;;;;;;;;;;5106653;28;20784;-63
2022/04/10 13:07:57;;;;;;;7.83;3.13;;;;;;;;;;5107061;28;20360;-64
2022/04/10 13:10:24;;;;;;;9.73;3.40;;;;;;;;;;5107004;28;20288;-64
2022/04/10 13:12:51;;;;;;;9.67;3.60;;;;;;;;;;5110295;28;20263;-64
2022/04/10 13:15:34;;;;;;;7.50;3.67;;;;;;;;;;5112256;28;20332;-64
2022/04/10 13:18:01;;;;;;;12.17;3.60;;;;;;;;;;5112225;28;20248;-64
2022/04/10 13:20:28;;;;;;;11.50;3.50;;;;;;;;;;5111840;28;20731;-64
2022/04/10 13:22:55;;;;;;;7.73;4.37;;;;;;;;;;5112051;28;20309;-64
2022/04/10 13:25:22;;;;;;;16.47;6.70;;;;;;;;;;5109649;28;20339;-64
2022/04/10 13:27:48;;;;;;;16.73;7.17;;;;;;;;;;5110337;28;20602;-65
2022/04/10 13:30:15;;;;;;;16.07;7.83;;;;;;;;;;5110101;28;20290;-64
2022/04/10 13:32:42;;;;;;;19.07;8.23;;;;;;;;;;5109932;28;20016;-65
2022/04/10 13:35:09;;;;;;;14.63;8.27;;;;;;;;;;5113402;28;20076;-68
2022/04/10 13:37:36;;;;;;;11.00;5.40;;;;;;;;;;5115576;28;20416;-64
2022/04/10 13:40:04;;;;;;;11.27;5.30;;;;;;;;;;5115514;28;20024;-64
2022/04/10 13:42:34;;;;;;;10.80;5.17;;;;;;;;;;5115529;28;20423;-64
2022/04/10 13:45:04;;;;;;;9.20;5.60;;;;;;;;;;5115341;28;20402;-65
2022/04/10 13:47:31;;;;;;;10.70;4.40;;;;;;;;;;5110370;28;20077;-65
2022/04/10 13:49:57;;;;;;;11.90;5.37;;;;;;;;;;5110026;28;20040;-65
2022/04/10 13:52:24;;;;;;;9.33;4.67;;;;;;;;;;5109895;28;20070;-64
2022/04/10 13:54:52;;;;;;;10.37;4.10;;;;;;;;;;5110007;28;20370;-65
2022/04/10 13:57:19;;;;;;;16.63;5.00;;;;;;;;;;5113465;28;20073;-64
2022/04/10 13:59:46;;;;;;;10.10;3.67;;;;;;;;;;5115130;28;20012;-65
2022/04/10 14:02:13;;;;;;;5.93;3.40;;;;;;;;;;5114710;28;20035;-64
2022/04/10 14:04:40;;;;;;;11.43;3.37;;;;;;;;;;5114881;28;20015;-64
2022/04/10 14:07:07;;;;;;;8.73;3.27;;;;;;;;;;5113644;28;20007;-62
2022/04/10 14:09:33;;;;;;;10.20;3.10;;;;;;;;;;5106573;28;20035;-61
2022/04/10 14:12:01;;;;;;;9.27;3.10;;;;;;;;;;5109702;28;20031;-61
2022/04/10 14:14:28;;;;;;;14.63;3.27;;;;;;;;;;5110061;28;20037;-62
2022/04/10 14:16:55;;;;;;;4.70;2.47;;;;;;;;;;5109549;28;20813;-62
2022/04/10 14:19:22;;;;;;;5.30;2.30;;;;;;;;;;5112722;28;20489;-62
2022/04/10 14:21:49;;;;;;;5.87;2.57;;;;;;;;;;5114898;28;20440;-61
2022/04/10 14:24:15;;;;;;;3.90;2.20;;;;;;;;;;5114640;28;20069;-61
2022/04/10 14:26:42;;;;;;;3.53;1.90;;;;;;;;;;5114789;28;20103;-61
2022/04/10 14:29:09;;;;;;;8.37;1.70;;;;;;;;;;5114314;28;20020;-63
2022/04/10 14:31:35;;;;;;;10.73;2.17;;;;;;;;;;5111273;28;20024;-64
2022/04/10 14:34:05;;;;;;;9.20;1.93;;;;;;;;;;5109042;28;20020;-65
2022/04/10 14:36:33;;;;;;;4.27;2.13;;;;;;;;;;5108928;28;20140;-64
2022/04/10 14:38:59;;;;;;;5.20;2.10;;;;;;;;;;5109418;28;20076;-65
2022/04/10 14:41:26;;;;;;;7.97;2.60;;;;;;;;;;5111842;28;20035;-65
2022/04/10 14:43:53;;;;;;;5.87;1.87;;;;;;;;;;5114366;28;20019;-65
2022/04/10 14:46:20;;;;;;;6.13;2.07;;;;;;;;;;5114246;28;20028;-64